Time;durP1;ratioP1;P1;durP2;ratioP2;P2;SDS_P1;SDS_P2;PMS_P1;PMS_P2;Temp;Humidity;BMP_temperature;BMP_pressure;BME280_temperature;BME280_humidity;BME280_pressure;Samples;Min_cycle;Max_cycle;Signal;HPM_P1;HPM_P2
2023/12/30 00:01:22;;;;;;;;;;;;;;;;;;5036566;28;19932;-83
2023/12/30 00:03:48;;;;;;;;;;;;;;;;;;5040104;28;19920;-83
2023/12/30 00:06:20;;;;;;;;;;;;;;;;;;5029559;28;19920;-81
2023/12/30 00:08:46;;;;;;;;;;;;;;;;;;5030051;28;19986;-83
2023/12/30 00:11:12;;;;;;;;;;;;;;;;;;5048006;28;19924;-83
2023/12/30 00:13:38;;;;;;;;;;;;;;;;;;5025116;28;19921;-84
2023/12/30 00:16:04;;;;;;;;;;;;;;;;;;5038146;28;19920;-83
2023/12/30 00:18:30;;;;;;;;;;;;;;;;;;5036867;28;19921;-83
2023/12/30 00:20:56;;;;;;;;;;;;;;;;;;5044316;28;19931;-86
2023/12/30 00:23:22;;;;;;;;;;;;;;;;;;5042657;28;20366;-86
2023/12/30 00:25:48;;;;;;;;;;;;;;;;;;5045379;28;20389;-86
2023/12/30 00:28:14;;;;;;;;;;;;;;;;;;5031680;28;20290;-86
2023/12/30 00:30:40;;;;;;;;;;;;;;;;;;5028113;28;19996;-85
2023/12/30 00:33:06;;;;;;;;;;;;;;;;;;5052402;28;19921;-86
2023/12/30 00:35:32;;;;;;;;;;;;;;;;;;5061039;28;19944;-86
2023/12/30 00:37:58;;;;;;;;;;;;;;;;;;5053664;28;19960;-86
2023/12/30 00:40:24;;;;;;;;;;;;;;;;;;5024530;28;19921;-86
2023/12/30 00:42:50;;;;;;;;;;;;;;;;;;5030266;28;19921;-86
2023/12/30 00:45:16;;;;;;;;;;;;;;;;;;5036549;28;19975;-83
2023/12/30 00:47:41;;;;;;;;;;;;;;;;;;5036814;28;20362;-84
2023/12/30 00:50:07;;;;;;;;;;;;;;;;;;5052792;28;20013;-82
2023/12/30 00:52:33;;;;;;;;;;;;;;;;;;5051719;28;19963;-83
2023/12/30 00:54:59;;;;;;;;;;;;;;;;;;5034280;28;20016;-84
2023/12/30 00:57:25;;;;;;;;;;;;;;;;;;5029315;28;20007;-83
2023/12/30 00:59:51;;;;;;;;;;;;;;;;;;5049375;28;19917;-83
2023/12/30 01:02:17;;;;;;;;;;;;;;;;;;5052732;28;19921;-82
2023/12/30 01:04:43;;;;;;;;;;;;;;;;;;5052072;28;19928;-82
2023/12/30 01:07:09;;;;;;;;;;;;;;;;;;5052714;28;19927;-83
2023/12/30 01:09:35;;;;;;;;;;;;;;;;;;5049365;28;20377;-82
2023/12/30 01:12:01;;;;;;;;;;;;;;;;;;5054263;28;19924;-82
2023/12/30 01:14:27;;;;;;;;;;;;;;;;;;5041834;28;19920;-83
2023/12/30 01:16:53;;;;;;;;;;;;;;;;;;5047514;28;19920;-83
2023/12/30 01:19:19;;;;;;;;;;;;;;;;;;5030861;28;19928;-82
2023/12/30 01:21:45;;;;;;;;;;;;;;;;;;5035974;28;19971;-83
2023/12/30 01:24:11;;;;;;;;;;;;;;;;;;5052920;28;19921;-83
2023/12/30 01:26:37;;;;;;;;;;;;;;;;;;5041585;28;19964;-79
2023/12/30 01:29:03;;;;;;;;;;;;;;;;;;5029684;28;19928;-82
2023/12/30 01:31:28;;;;;;;;;;;;;;;;;;5040176;28;19921;-84
2023/12/30 01:33:54;;;;;;;;;;;;;;;;;;5036970;28;19921;-83
2023/12/30 01:36:20;;;;;;;;;;;;;;;;;;5039155;28;19947;-83
2023/12/30 01:38:46;;;;;;;;;;;;;;;;;;5039649;28;19921;-82
2023/12/30 01:41:12;;;;;;;;;;;;;;;;;;5031311;28;19924;-82
2023/12/30 01:43:38;;;;;;;;;;;;;;;;;;5032578;28;19928;-82
2023/12/30 01:46:04;;;;;;;;;;;;;;;;;;5047606;28;19929;-83
2023/12/30 01:48:30;;;;;;;;;;;;;;;;;;5044740;28;19921;-82
2023/12/30 01:50:59;;;;;;;;;;;;;;;;;;5028226;28;19925;-84
2023/12/30 01:53:25;;;;;;;;;;;;;;;;;;5030097;28;19970;-83
2023/12/30 01:55:51;;;;;;;;;;;;;;;;;;5051149;28;19957;-83
2023/12/30 01:58:17;;;;;;;;;;;;;;;;;;5045402;28;20429;-82
2023/12/30 02:00:43;;;;;;;;;;;;;;;;;;5049493;28;19967;-82
2023/12/30 02:03:09;;;;;;;;;;;;;;;;;;5050668;28;19961;-83
2023/12/30 02:05:35;;;;;;;;;;;;;;;;;;5052361;28;20255;-83
2023/12/30 02:08:01;;;;;;;;;;;;;;;;;;5043961;28;20546;-82
2023/12/30 02:10:27;;;;;;;;;;;;;;;;;;5046514;28;19943;-82
2023/12/30 02:12:53;;;;;;;;;;;;;;;;;;5021241;28;20012;-83
2023/12/30 02:15:21;;;;;;;;;;;;;;;;;;5026825;28;19924;-82
2023/12/30 02:17:50;;;;;;;;;;;;;;;;;;5030525;28;19921;-82
2023/12/30 02:20:16;;;;;;;;;;;;;;;;;;5019534;28;20278;-82
2023/12/30 02:22:42;;;;;;;;;;;;;;;;;;5035941;28;19921;-81
2023/12/30 02:25:07;;;;;;;;;;;;;;;;;;5032104;28;20367;-83
2023/12/30 02:27:33;;;;;;;;;;;;;;;;;;5043419;28;20366;-83
2023/12/30 02:29:59;;;;;;;;;;;;;;;;;;5050307;28;20289;-83
2023/12/30 02:32:25;;;;;;;;;;;;;;;;;;5029116;28;19921;-83
2023/12/30 02:34:51;;;;;;;;;;;;;;;;;;5052457;28;19928;-83
2023/12/30 02:37:17;;;;;;;;;;;;;;;;;;5050909;28;19924;-83
2023/12/30 02:39:43;;;;;;;;;;;;;;;;;;5048290;28;20378;-83
2023/12/30 02:42:09;;;;;;;;;;;;;;;;;;5050885;28;19920;-83
2023/12/30 02:44:35;;;;;;;;;;;;;;;;;;5035142;28;20011;-82
2023/12/30 02:47:01;;;;;;;;;;;;;;;;;;5050843;28;20393;-83
2023/12/30 02:49:27;;;;;;;;;;;;;;;;;;5039027;28;20401;-82
2023/12/30 02:51:54;;;;;;;;;;;;;;;;;;5041244;28;19920;-82
2023/12/30 02:54:19;;;;;;;;;;;;;;;;;;5022693;28;19921;-83
2023/12/30 02:56:45;;;;;;;;;;;;;;;;;;5015446;28;19921;-83
2023/12/30 02:59:11;;;;;;;;;;;;;;;;;;5044518;28;19935;-83
2023/12/30 03:01:38;;;;;;;;;;;;;;;;;;5047749;28;19967;-83
2023/12/30 03:04:04;;;;;;;;;;;;;;;;;;5056338;28;19920;-83
2023/12/30 03:06:30;;;;;;;;;;;;;;;;;;5021053;28;19927;-84
2023/12/30 03:08:56;;;;;;;;;;;;;;;;;;5049300;28;20015;-83
2023/12/30 03:11:23;;;;;;;;;;;;;;;;;;5046981;28;19971;-82
2023/12/30 03:13:48;;;;;;;;;;;;;;;;;;5048486;28;19927;-83
2023/12/30 03:16:14;;;;;;;;;;;;;;;;;;5034486;28;19921;-82
2023/12/30 03:18:40;;;;;;;;;;;;;;;;;;5052667;28;19920;-83
2023/12/30 03:21:09;;;;;;;;;;;;;;;;;;5059056;28;19978;-83
2023/12/30 03:23:35;;;;;;;;;;;;;;;;;;5042799;28;19920;-82
2023/12/30 03:26:02;;;;;;;;;;;;;;;;;;5027983;28;19970;-83
2023/12/30 03:28:28;;;;;;;;;;;;;;;;;;5049262;28;19986;-83
2023/12/30 03:30:54;;;;;;;;;;;;;;;;;;5049963;28;20362;-83
2023/12/30 03:33:20;;;;;;;;;;;;;;;;;;5046771;28;20269;-83
2023/12/30 03:35:46;;;;;;;;;;;;;;;;;;5047773;28;19971;-83
2023/12/30 03:38:12;;;;;;;;;;;;;;;;;;5032915;28;20409;-83
2023/12/30 03:40:38;;;;;;;;;;;;;;;;;;5037178;28;19925;-83
2023/12/30 03:43:03;;;;;;;;;;;;;;;;;;5048310;28;19967;-83
2023/12/30 03:45:29;;;;;;;;;;;;;;;;;;5043704;28;19928;-83
2023/12/30 03:47:55;;;;;;;;;;;;;;;;;;5040539;28;20011;-82
2023/12/30 03:50:21;;;;;;;;;;;;;;;;;;5049038;28;19920;-83
2023/12/30 03:52:47;;;;;;;;;;;;;;;;;;5022800;28;19961;-83
2023/12/30 03:55:13;;;;;;;;;;;;;;;;;;5042115;28;20011;-82
2023/12/30 03:57:39;;;;;;;;;;;;;;;;;;5018541;28;19925;-83
2023/12/30 04:00:05;;;;;;;;;;;;;;;;;;5021675;28;19928;-82
2023/12/30 04:02:31;;;;;;;;;;;;;;;;;;5042357;28;19927;-83
2023/12/30 04:04:57;;;;;;;;;;;;;;;;;;5048101;28;20030;-81
2023/12/30 04:07:23;;;;;;;;;;;;;;;;;;5031693;28;20003;-83
2023/12/30 04:09:49;;;;;;;;;;;;;;;;;;5016805;28;19921;-83
2023/12/30 04:12:15;;;;;;;;;;;;;;;;;;5028471;28;19924;-83
2023/12/30 04:14:41;;;;;;;;;;;;;;;;;;5036474;28;19921;-84
2023/12/30 04:17:07;;;;;;;;;;;;;;;;;;5044200;28;19976;-83
2023/12/30 04:19:33;;;;;;;;;;;;;;;;;;5030049;28;20293;-83
2023/12/30 04:21:59;;;;;;;;;;;;;;;;;;5038180;28;19920;-81
2023/12/30 04:24:25;;;;;;;;;;;;;;;;;;5055323;28;20011;-83
2023/12/30 04:26:51;;;;;;;;;;;;;;;;;;5040531;28;19920;-83
2023/12/30 04:29:17;;;;;;;;;;;;;;;;;;5054048;28;19967;-82
2023/12/30 04:31:43;;;;;;;;;;;;;;;;;;5030351;28;19924;-83
2023/12/30 04:34:09;;;;;;;;;;;;;;;;;;5048944;28;19928;-82
2023/12/30 04:36:35;;;;;;;;;;;;;;;;;;5032618;28;19921;-83
2023/12/30 04:39:01;;;;;;;;;;;;;;;;;;5038000;28;19924;-81
2023/12/30 04:41:27;;;;;;;;;;;;;;;;;;5034036;28;19921;-83
2023/12/30 04:43:54;;;;;;;;;;;;;;;;;;5048323;28;19921;-82
2023/12/30 04:46:20;;;;;;;;;;;;;;;;;;5048696;28;20692;-83
2023/12/30 04:48:48;;;;;;;;;;;;;;;;;;5050271;28;19927;-83
2023/12/30 04:51:14;;;;;;;;;;;;;;;;;;5049723;28;19921;-83
2023/12/30 04:53:40;;;;;;;;;;;;;;;;;;5050334;28;19987;-82
2023/12/30 04:56:08;;;;;;;;;;;;;;;;;;5032457;28;19920;-83
2023/12/30 04:58:34;;;;;;;;;;;;;;;;;;5037239;28;19967;-83
2023/12/30 05:01:00;;;;;;;;;;;;;;;;;;5052982;28;19920;-83
2023/12/30 05:03:26;;;;;;;;;;;;;;;;;;5036971;28;19971;-83
2023/12/30 05:05:52;;;;;;;;;;;;;;;;;;5052323;28;19921;-82
2023/12/30 05:08:18;;;;;;;;;;;;;;;;;;5024472;28;19970;-83
2023/12/30 05:10:43;;;;;;;;;;;;;;;;;;5055065;28;19927;-82
2023/12/30 05:13:09;;;;;;;;;;;;;;;;;;5028872;28;19982;-83
2023/12/30 05:15:35;;;;;;;;;;;;;;;;;;5058273;28;19927;-83
2023/12/30 05:18:01;;;;;;;;;;;;;;;;;;5023270;28;19920;-82
2023/12/30 05:20:27;;;;;;;;;;;;;;;;;;5049799;28;20031;-82
2023/12/30 05:22:53;;;;;;;;;;;;;;;;;;5035994;28;19925;-82
2023/12/30 05:25:19;;;;;;;;;;;;;;;;;;5024706;28;19921;-83
2023/12/30 05:27:45;;;;;;;;;;;;;;;;;;5050438;28;20015;-82
2023/12/30 05:30:11;;;;;;;;;;;;;;;;;;5031992;28;19938;-82
2023/12/30 05:32:37;;;;;;;;;;;;;;;;;;5053500;28;19920;-82
2023/12/30 05:35:03;;;;;;;;;;;;;;;;;;5050761;28;20361;-83
2023/12/30 05:37:29;;;;;;;;;;;;;;;;;;5039523;28;19925;-83
2023/12/30 05:39:55;;;;;;;;;;;;;;;;;;5043926;28;20385;-83
2023/12/30 05:42:21;;;;;;;;;;;;;;;;;;5026333;28;20449;-83
2023/12/30 05:44:48;;;;;;;;;;;;;;;;;;5035020;28;19970;-83
2023/12/30 05:47:14;;;;;;;;;;;;;;;;;;5035377;28;19925;-82
2023/12/30 05:49:40;;;;;;;;;;;;;;;;;;5051785;28;19960;-83
2023/12/30 05:52:06;;;;;;;;;;;;;;;;;;5035016;28;20008;-83
2023/12/30 05:54:32;;;;;;;;;;;;;;;;;;5051491;28;19999;-83
2023/12/30 05:57:00;;;;;;;;;;;;;;;;;;5039067;28;19925;-81
2023/12/30 05:59:26;;;;;;;;;;;;;;;;;;5060064;28;19920;-82
2023/12/30 06:01:52;;;;;;;;;;;;;;;;;;5058641;28;19921;-83
2023/12/30 06:04:18;;;;;;;;;;;;;;;;;;5053516;28;19921;-82
2023/12/30 06:06:44;;;;;;;;;;;;;;;;;;5025313;28;20354;-82
2023/12/30 06:09:10;;;;;;;;;;;;;;;;;;5038237;28;20400;-83
2023/12/30 06:11:36;;;;;;;;;;;;;;;;;;5028504;28;19968;-83
2023/12/30 06:14:02;;;;;;;;;;;;;;;;;;5037578;28;19920;-82
2023/12/30 06:16:28;;;;;;;;;;;;;;;;;;5067756;28;20003;-82
2023/12/30 06:18:54;;;;;;;;;;;;;;;;;;5054967;28;19960;-83
2023/12/30 06:21:20;;;;;;;;;;;;;;;;;;5021140;28;19944;-82
2023/12/30 06:23:46;;;;;;;;;;;;;;;;;;5017987;28;19921;-83
2023/12/30 06:26:12;;;;;;;;;;;;;;;;;;5021140;28;20015;-83
2023/12/30 06:28:38;;;;;;;;;;;;;;;;;;5050820;28;19928;-82
2023/12/30 06:31:04;;;;;;;;;;;;;;;;;;5021737;28;19920;-83
2023/12/30 06:33:29;;;;;;;;;;;;;;;;;;5034685;28;19927;-82
2023/12/30 06:35:55;;;;;;;;;;;;;;;;;;5053381;28;19925;-84
2023/12/30 06:38:21;;;;;;;;;;;;;;;;;;5053438;28;19927;-83
2023/12/30 06:40:47;;;;;;;;;;;;;;;;;;5056035;28;20015;-82
2023/12/30 06:43:13;;;;;;;;;;;;;;;;;;5045530;28;19932;-83
2023/12/30 06:45:39;;;;;;;;;;;;;;;;;;5031579;28;20008;-82
2023/12/30 06:48:05;;;;;;;;;;;;;;;;;;5033985;28;19925;-83
2023/12/30 06:50:31;;;;;;;;;;;;;;;;;;5050383;28;19927;-83
2023/12/30 06:52:58;;;;;;;;;;;;;;;;;;5047650;28;19968;-83
2023/12/30 06:55:24;;;;;;;;;;;;;;;;;;5050977;28;20266;-82
2023/12/30 06:57:50;;;;;;;;;;;;;;;;;;5035349;28;19928;-81
2023/12/30 07:00:19;;;;;;;;;;;;;;;;;;5051561;28;19942;-77
2023/12/30 07:02:45;;;;;;;;;;;;;;;;;;5037941;28;20293;-83
2023/12/30 07:05:11;;;;;;;;;;;;;;;;;;5039390;28;19921;-80
2023/12/30 07:07:37;;;;;;;;;;;;;;;;;;5023271;28;19924;-82
2023/12/30 07:10:03;;;;;;;;;;;;;;;;;;5032579;28;19924;-80
2023/12/30 07:12:29;;;;;;;;;;;;;;;;;;5040790;28;19928;-80
2023/12/30 07:14:55;;;;;;;;;;;;;;;;;;5030597;28;19928;-82
2023/12/30 07:17:21;;;;;;;;;;;;;;;;;;5031557;28;20003;-79
2023/12/30 07:19:47;;;;;;;;;;;;;;;;;;5039358;28;20646;-79
2023/12/30 07:22:13;;;;;;;;;;;;;;;;;;5048831;28;20316;-79
2023/12/30 07:24:39;;;;;;;;;;;;;;;;;;5033135;28;20393;-78
2023/12/30 07:27:05;;;;;;;;;;;;;;;;;;5033999;28;19975;-80
2023/12/30 07:29:31;;;;;;;;;;;;;;;;;;5049753;28;19928;-79
2023/12/30 07:31:57;;;;;;;;;;;;;;;;;;5047445;28;19925;-79
2023/12/30 07:34:23;;;;;;;;;;;;;;;;;;5028361;28;20393;-79
2023/12/30 07:36:50;;;;;;;;;;;;;;;;;;5031226;28;20016;-81
2023/12/30 07:39:16;;;;;;;;;;;;;;;;;;5034918;28;20366;-76
2023/12/30 07:41:42;;;;;;;;;;;;;;;;;;5047551;28;19920;-78
2023/12/30 07:44:08;;;;;;;;;;;;;;;;;;5041454;28;20282;-80
2023/12/30 07:46:34;;;;;;;;;;;;;;;;;;5038438;28;19921;-80
2023/12/30 07:49:00;;;;;;;;;;;;;;;;;;5032432;28;19921;-80
2023/12/30 07:51:26;;;;;;;;;;;;;;;;;;5047718;28;19920;-82
2023/12/30 07:53:52;;;;;;;;;;;;;;;;;;5023824;28;19948;-81
2023/12/30 07:56:18;;;;;;;;;;;;;;;;;;5030627;28;19920;-80
2023/12/30 07:58:44;;;;;;;;;;;;;;;;;;5028456;28;19970;-80
2023/12/30 08:01:10;;;;;;;;;;;;;;;;;;5043626;28;19928;-82
2023/12/30 08:03:36;;;;;;;;;;;;;;;;;;5045505;28;19927;-82
2023/12/30 08:06:02;;;;;;;;;;;;;;;;;;5046386;28;19920;-85
2023/12/30 08:08:28;;;;;;;;;;;;;;;;;;5045210;28;19921;-82
2023/12/30 08:10:54;;;;;;;;;;;;;;;;;;5033613;28;19928;-82
2023/12/30 08:13:20;;;;;;;;;;;;;;;;;;5030056;28;19952;-82
2023/12/30 08:15:46;;;;;;;;;;;;;;;;;;5033482;28;19936;-83
2023/12/30 08:18:12;;;;;;;;;;;;;;;;;;5046902;28;20382;-82
2023/12/30 08:20:38;;;;;;;;;;;;;;;;;;5046221;28;20282;-81
2023/12/30 08:23:04;;;;;;;;;;;;;;;;;;5030632;28;19971;-73
2023/12/30 08:25:30;;;;;;;;;;;;;;;;;;5054936;28;19975;-88
2023/12/30 08:27:56;;;;;;;;;;;;;;;;;;5043930;28;19924;-85
2023/12/30 08:30:24;;;;;;;;;;;;;;;;;;5038418;28;20281;-82
2023/12/30 08:32:51;;;;;;;;;;;;;;;;;;5050441;28;20607;-84
2023/12/30 08:35:17;;;;;;;;;;;;;;;;;;5054642;28;19921;-80
2023/12/30 08:37:47;;;;;;;;;;;;;;;;;;5054496;28;19936;-83
2023/12/30 08:40:14;;;;;;;;;;;;;;;;;;5053484;28;20362;-84
2023/12/30 08:42:44;;;;;;;;;;;;;;;;;;5054152;28;19920;-86
2023/12/30 08:45:17;;;;;;;;;;;;;;;;;;5060096;28;20319;-83
2023/12/30 08:47:44;;;;;;;;;;;;;;;;;;5054050;28;19972;-79
2023/12/30 08:50:10;;;;;;;;;;;;;;;;;;5054588;28;19921;-86
2023/12/30 08:52:36;;;;;;;;;;;;;;;;;;5053820;28;19947;-80
2023/12/30 08:55:05;;;;;;;;;;;;;;;;;;5054377;28;19924;-77
2023/12/30 08:57:31;;;;;;;;;;;;;;;;;;5053510;28;20344;-81
2023/12/30 08:59:57;;;;;;;;;;;;;;;;;;5054037;28;20008;-84
2023/12/30 09:02:23;;;;;;;;;;;;;;;;;;5036792;28;20018;-84
2023/12/30 09:04:49;;;;;;;;;;;;;;;;;;5035461;28;19973;-85
2023/12/30 09:07:15;;;;;;;;;;;;;;;;;;5054420;28;19971;-82
2023/12/30 09:09:41;;;;;;;;;;;;;;;;;;5037386;28;19927;-78
2023/12/30 09:12:07;;;;;;;;;;;;;;;;;;5054016;28;19921;-80
2023/12/30 09:14:32;;;;;;;;;;;;;;;;;;5054408;28;19932;-80
2023/12/30 09:16:58;;;;;;;;;;;;;;;;;;5054914;28;19978;-81
2023/12/30 09:19:24;;;;;;;;;;;;;;;;;;5054755;28;19921;-81
2023/12/30 09:21:50;;;;;;;;;;;;;;;;;;5063919;28;19927;-78
2023/12/30 09:24:16;;;;;;;;;;;;;;;;;;5058188;28;19970;-79
2023/12/30 09:26:42;;;;;;;;;;;;;;;;;;5056081;28;19999;-79
2023/12/30 09:29:08;;;;;;;;;;;;;;;;;;5054710;28;19921;-79
2023/12/30 09:31:34;;;;;;;;;;;;;;;;;;5054925;28;20384;-78
2023/12/30 09:34:00;;;;;;;;;;;;;;;;;;5054598;28;20243;-77
2023/12/30 09:36:28;;;;;;;;;;;;;;;;;;5054418;28;19920;-78
2023/12/30 09:38:54;;;;;;;;;;;;;;;;;;5053431;28;20403;-77
2023/12/30 09:41:20;;;;;;;;;;;;;;;;;;5052991;28;19963;-81
2023/12/30 09:43:47;;;;;;;;;;;;;;;;;;5025050;28;19967;-83
2023/12/30 09:46:14;;;;;;;;;;;;;;;;;;5016205;28;19925;-83
2023/12/30 09:48:40;;;;;;;;;;;;;;;;;;5016189;28;19921;-82
2023/12/30 09:51:06;;;;;;;;;;;;;;;;;;5015042;28;19921;-83
2023/12/30 09:53:32;;;;;;;;;;;;;;;;;;5015345;28;19991;-83
2023/12/30 09:55:58;;;;;;;;;;;;;;;;;;5015430;28;19927;-84
2023/12/30 09:58:24;;;;;;;;;;;;;;;;;;5032347;28;20318;-83
2023/12/30 10:00:50;;;;;;;;;;;;;;;;;;5028298;28;19950;-84
2023/12/30 10:03:16;;;;;;;;;;;;;;;;;;5073664;28;20354;-83
2023/12/30 10:05:42;;;;;;;;;;;;;;;;;;5055594;28;20312;-84
2023/12/30 10:08:08;;;;;;;;;;;;;;;;;;5056491;28;19970;-80
2023/12/30 10:10:34;;;;;;;;;;;;;;;;;;5043548;28;19921;-83
2023/12/30 10:13:00;;;;;;;;;;;;;;;;;;5034673;28;19924;-85
2023/12/30 10:15:26;;;;;;;;;;;;;;;;;;5054022;28;19936;-81
2023/12/30 10:17:52;;;;;;;;;;;;;;;;;;5053371;28;19921;-79
2023/12/30 10:20:23;;;;;;;;;;;;;;;;;;5035382;28;20058;-84
2023/12/30 10:22:49;;;;;;;;;;;;;;;;;;5052203;28;19920;-84
2023/12/30 10:25:15;;;;;;;;;;;;;;;;;;5036169;28;19921;-84
2023/12/30 10:27:41;;;;;;;;;;;;;;;;;;5035446;28;20320;-83
2023/12/30 10:30:08;;;;;;;;;;;;;;;;;;5035549;28;19970;-84
2023/12/30 10:32:34;;;;;;;;;;;;;;;;;;5052466;28;20004;-84
2023/12/30 10:35:00;;;;;;;;;;;;;;;;;;5034344;28;20014;-84
2023/12/30 10:37:26;;;;;;;;;;;;;;;;;;5052154;28;20016;-83
2023/12/30 10:39:52;;;;;;;;;;;;;;;;;;5051714;28;19925;-84
2023/12/30 10:42:18;;;;;;;;;;;;;;;;;;5063056;28;19931;-83
2023/12/30 10:44:44;;;;;;;;;;;;;;;;;;5072607;28;19920;-83
2023/12/30 10:47:10;;;;;;;;;;;;;;;;;;5045942;28;20289;-87
2023/12/30 10:49:36;;;;;;;;;;;;;;;;;;5051266;28;19943;-83
2023/12/30 10:52:02;;;;;;;;;;;;;;;;;;5031387;28;19920;-83
2023/12/30 10:54:28;;;;;;;;;;;;;;;;;;5050926;28;19978;-83
2023/12/30 10:56:54;;;;;;;;;;;;;;;;;;5050710;28;20535;-83
2023/12/30 10:59:21;;;;;;;;;;;;;;;;;;5032969;28;19921;-84
2023/12/30 11:01:47;;;;;;;;;;;;;;;;;;5032893;28;19921;-84
2023/12/30 11:04:14;;;;;;;;;;;;;;;;;;5066178;28;19931;-83
2023/12/30 11:06:40;;;;;;;;;;;;;;;;;;5052468;28;20366;-85
2023/12/30 11:09:06;;;;;;;;;;;;;;;;;;5034727;28;19920;-85
2023/12/30 11:11:32;;;;;;;;;;;;;;;;;;5037113;28;19999;-83
2023/12/30 11:13:58;;;;;;;;;;;;;;;;;;5033235;28;20372;-84
2023/12/30 11:16:24;;;;;;;;;;;;;;;;;;5051193;28;19943;-83
2023/12/30 11:18:50;;;;;;;;;;;;;;;;;;5034443;28;19974;-83
2023/12/30 11:21:16;;;;;;;;;;;;;;;;;;5032259;28;19928;-84
2023/12/30 11:23:42;;;;;;;;;;;;;;;;;;5034180;28;19921;-85
2023/12/30 11:26:08;;;;;;;;;;;;;;;;;;5052452;28;19920;-84
2023/12/30 11:28:34;;;;;;;;;;;;;;;;;;5034719;28;19927;-85
2023/12/30 11:31:00;;;;;;;;;;;;;;;;;;5047765;28;19946;-84
2023/12/30 11:33:26;;;;;;;;;;;;;;;;;;5051288;28;20284;-84
2023/12/30 11:35:52;;;;;;;;;;;;;;;;;;5050716;28;20015;-84
2023/12/30 11:38:18;;;;;;;;;;;;;;;;;;5050196;28;19966;-85
2023/12/30 11:40:44;;;;;;;;;;;;;;;;;;5050895;28;19920;-85
2023/12/30 11:43:10;;;;;;;;;;;;;;;;;;5032823;28;20350;-85
2023/12/30 11:45:37;;;;;;;;;;;;;;;;;;5050593;28;19943;-85
2023/12/30 11:48:03;;;;;;;;;;;;;;;;;;5032873;28;20011;-85
2023/12/30 11:50:29;;;;;;;;;;;;;;;;;;5054204;28;19946;-84
2023/12/30 11:52:56;;;;;;;;;;;;;;;;;;5054200;28;19920;-85
2023/12/30 11:55:23;;;;;;;;;;;;;;;;;;5053625;28;19920;-86
2023/12/30 11:57:49;;;;;;;;;;;;;;;;;;5070338;28;20007;-85
2023/12/30 12:00:15;;;;;;;;;;;;;;;;;;5059018;28;20283;-84
2023/12/30 12:02:41;;;;;;;;;;;;;;;;;;5050426;28;19927;-85
2023/12/30 12:05:07;;;;;;;;;;;;;;;;;;5033064;28;19990;-85
2023/12/30 12:07:34;;;;;;;;;;;;;;;;;;5050535;28;20015;-85
2023/12/30 12:10:00;;;;;;;;;;;;;;;;;;5044454;28;20031;-84
2023/12/30 12:12:26;;;;;;;;;;;;;;;;;;5053850;28;19968;-85
2023/12/30 12:14:52;;;;;;;;;;;;;;;;;;5048311;28;19975;-85
2023/12/30 12:17:19;;;;;;;;;;;;;;;;;;5050406;28;20350;-85
2023/12/30 12:19:45;;;;;;;;;;;;;;;;;;5033752;28;19927;-85
2023/12/30 12:22:11;;;;;;;;;;;;;;;;;;5049241;28;19920;-85
2023/12/30 12:24:37;;;;;;;;;;;;;;;;;;5070842;28;19943;-85
2023/12/30 12:27:03;;;;;;;;;;;;;;;;;;5053230;28;19920;-85
2023/12/30 12:29:28;;;;;;;;;;;;;;;;;;5070990;28;19920;-85
2023/12/30 12:31:55;;;;;;;;;;;;;;;;;;5071124;28;19920;-85
2023/12/30 12:34:22;;;;;;;;;;;;;;;;;;5068351;28;19928;-85
2023/12/30 12:36:48;;;;;;;;;;;;;;;;;;5038720;28;19921;-85
2023/12/30 12:39:13;;;;;;;;;;;;;;;;;;5049864;28;20059;-84
2023/12/30 12:41:39;;;;;;;;;;;;;;;;;;5054000;28;19921;-85
2023/12/30 12:44:05;;;;;;;;;;;;;;;;;;5069195;28;19927;-84
2023/12/30 12:46:31;;;;;;;;;;;;;;;;;;5054097;28;20006;-85
2023/12/30 12:48:59;;;;;;;;;;;;;;;;;;5053957;28;19921;-84
2023/12/30 12:51:25;;;;;;;;;;;;;;;;;;5060353;28;20139;-85
2023/12/30 12:53:51;;;;;;;;;;;;;;;;;;5050388;28;19920;-84
2023/12/30 12:56:17;;;;;;;;;;;;;;;;;;5036505;28;20421;-84
2023/12/30 12:58:43;;;;;;;;;;;;;;;;;;5043026;28;19995;-84
2023/12/30 13:01:09;;;;;;;;;;;;;;;;;;5033083;28;19975;-85
2023/12/30 13:03:35;;;;;;;;;;;;;;;;;;5035826;28;19920;-85
2023/12/30 13:06:10;;;;;;;;;;;;;;;;;;5053279;28;19920;-85
2023/12/30 13:08:36;;;;;;;;;;;;;;;;;;5053428;28;20385;-85
2023/12/30 13:11:02;;;;;;;;;;;;;;;;;;5055147;28;19920;-85
2023/12/30 13:13:29;;;;;;;;;;;;;;;;;;5048900;28;20023;-85
2023/12/30 13:15:58;;;;;;;;;;;;;;;;;;5050623;28;19921;-85
2023/12/30 13:18:24;;;;;;;;;;;;;;;;;;5036015;28;19920;-85
2023/12/30 13:20:50;;;;;;;;;;;;;;;;;;5053349;28;19921;-85
2023/12/30 13:23:17;;;;;;;;;;;;;;;;;;5034936;28;20259;-84
2023/12/30 13:25:42;;;;;;;;;;;;;;;;;;5053920;28;19920;-85
2023/12/30 13:28:08;;;;;;;;;;;;;;;;;;5034927;28;19927;-84
2023/12/30 13:30:34;;;;;;;;;;;;;;;;;;5052828;28;20362;-90
2023/12/30 13:33:03;;;;;;;;;;;;;;;;;;5036523;28;19960;-87
2023/12/30 13:35:34;;;;;;;;;;;;;;;;;;5054558;28;20011;-91
2023/12/30 13:38:00;;;;;;;;;;;;;;;;;;5036542;28;20023;-86
2023/12/30 13:40:27;;;;;;;;;;;;;;;;;;5035877;28;20425;-85
2023/12/30 13:42:54;;;;;;;;;;;;;;;;;;5053370;28;19940;-84
2023/12/30 13:45:21;;;;;;;;;;;;;;;;;;5035925;28;19921;-86
2023/12/30 13:52:42;;;;;;;;;;;;;;;;;;5053361;28;20247;-86
2023/12/30 13:55:17;;;;;;;;;;;;;;;;;;5036728;28;19968;-85
2023/12/30 13:57:44;;;;;;;;;;;;;;;;;;5035930;28;19924;-85
2023/12/30 14:00:10;;;;;;;;;;;;;;;;;;5053180;28;19928;-85
2023/12/30 14:02:40;;;;;;;;;;;;;;;;;;5052400;28;19973;-85
2023/12/30 14:05:13;;;;;;;;;;;;;;;;;;5038148;28;19972;-85
2023/12/30 14:07:39;;;;;;;;;;;;;;;;;;5066605;28;20262;-86
2023/12/30 14:10:06;;;;;;;;;;;;;;;;;;5045254;28;19928;-86
2023/12/30 14:12:33;;;;;;;;;;;;;;;;;;5071788;28;20267;-85
2023/12/30 14:15:09;;;;;;;;;;;;;;;;;;5072935;28;19921;-86
2023/12/30 14:17:35;;;;;;;;;;;;;;;;;;5055940;28;19920;-85
2023/12/30 14:20:04;;;;;;;;;;;;;;;;;;5055384;28;20069;-86
2023/12/30 14:22:31;;;;;;;;;;;;;;;;;;5064781;28;19935;-85
2023/12/30 14:24:57;;;;;;;;;;;;;;;;;;5055960;28;20010;-85
2023/12/30 14:27:23;;;;;;;;;;;;;;;;;;5071399;28;19963;-85
2023/12/30 14:29:51;;;;;;;;;;;;;;;;;;5069972;28;19926;-86
2023/12/30 14:32:17;;;;;;;;;;;;;;;;;;5054482;28;19920;-84
2023/12/30 14:34:43;;;;;;;;;;;;;;;;;;5051600;28;19929;-85
2023/12/30 14:37:09;;;;;;;;;;;;;;;;;;5052543;28;20402;-86
2023/12/30 14:39:35;;;;;;;;;;;;;;;;;;5051425;28;19921;-85
2023/12/30 14:42:01;;;;;;;;;;;;;;;;;;5035525;28;20340;-85
2023/12/30 14:44:27;;;;;;;;;;;;;;;;;;5070798;28;19920;-85
2023/12/30 14:46:53;;;;;;;;;;;;;;;;;;5072392;28;20316;-85
2023/12/30 14:49:19;;;;;;;;;;;;;;;;;;5072467;28;19924;-86
2023/12/30 14:51:45;;;;;;;;;;;;;;;;;;5063103;28;19929;-86
2023/12/30 14:54:11;;;;;;;;;;;;;;;;;;5035340;28;19921;-85
2023/12/30 14:56:38;;;;;;;;;;;;;;;;;;5035298;28;19920;-85
2023/12/30 14:59:03;;;;;;;;;;;;;;;;;;5052228;28;19924;-85
2023/12/30 15:01:30;;;;;;;;;;;;;;;;;;5034525;28;19927;-86
2023/12/30 15:03:59;;;;;;;;;;;;;;;;;;5049923;28;19928;-85
2023/12/30 15:06:29;;;;;;;;;;;;;;;;;;5054122;28;19920;-85
2023/12/30 15:08:55;;;;;;;;;;;;;;;;;;5055327;28;19924;-86
2023/12/30 15:11:21;;;;;;;;;;;;;;;;;;5055229;28;19920;-86
2023/12/30 15:13:47;;;;;;;;;;;;;;;;;;5053676;28;19927;-86
2023/12/30 15:16:13;;;;;;;;;;;;;;;;;;5069777;28;19928;-86
2023/12/30 15:18:39;;;;;;;;;;;;;;;;;;5045386;28;19920;-85
2023/12/30 15:21:05;;;;;;;;;;;;;;;;;;5054300;28;19920;-86
2023/12/30 15:23:31;;;;;;;;;;;;;;;;;;5054734;28;20061;-86
2023/12/30 15:25:58;;;;;;;;;;;;;;;;;;5071352;28;20047;-86
2023/12/30 15:28:24;;;;;;;;;;;;;;;;;;5054095;28;19924;-85
2023/12/30 15:30:50;;;;;;;;;;;;;;;;;;5071528;28;19920;-86
2023/12/30 15:33:16;;;;;;;;;;;;;;;;;;5054654;28;19931;-86
2023/12/30 15:35:42;;;;;;;;;;;;;;;;;;5063120;28;19921;-86
2023/12/30 15:38:08;;;;;;;;;;;;;;;;;;5066347;28;20285;-86
2023/12/30 15:40:34;;;;;;;;;;;;;;;;;;5033435;28;19931;-86
2023/12/30 15:43:00;;;;;;;;;;;;;;;;;;5034179;28;19947;-86
2023/12/30 15:45:26;;;;;;;;;;;;;;;;;;5051273;28;20019;-85
2023/12/30 15:47:52;;;;;;;;;;;;;;;;;;5034631;28;19920;-87
2023/12/30 15:50:18;;;;;;;;;;;;;;;;;;5034244;28;19921;-86
2023/12/30 15:52:44;;;;;;;;;;;;;;;;;;5034031;28;20397;-87
2023/12/30 15:55:10;;;;;;;;;;;;;;;;;;5051198;28;20285;-85
2023/12/30 15:57:36;;;;;;;;;;;;;;;;;;5059021;28;19943;-86
2023/12/30 16:00:03;;;;;;;;;;;;;;;;;;5034553;28;20365;-84
2023/12/30 16:02:29;;;;;;;;;;;;;;;;;;5033670;28;19920;-84
2023/12/30 16:04:55;;;;;;;;;;;;;;;;;;5034036;28;20019;-86
2023/12/30 16:07:21;;;;;;;;;;;;;;;;;;5051069;28;19970;-86
2023/12/30 16:09:48;;;;;;;;;;;;;;;;;;5049401;28;19964;-86
2023/12/30 16:12:14;;;;;;;;;;;;;;;;;;5070508;28;19924;-85
2023/12/30 16:14:40;;;;;;;;;;;;;;;;;;5053839;28;19920;-85
2023/12/30 16:17:08;;;;;;;;;;;;;;;;;;5054336;28;19921;-85
2023/12/30 16:19:35;;;;;;;;;;;;;;;;;;5070008;28;19924;-85
2023/12/30 16:22:01;;;;;;;;;;;;;;;;;;5056617;28;19921;-85
2023/12/30 16:24:26;;;;;;;;;;;;;;;;;;5051044;28;20011;-85
2023/12/30 16:26:52;;;;;;;;;;;;;;;;;;5050509;28;20016;-85
2023/12/30 16:29:18;;;;;;;;;;;;;;;;;;5033450;28;20274;-85
2023/12/30 16:31:44;;;;;;;;;;;;;;;;;;5033706;28;19920;-85
2023/12/30 16:34:10;;;;;;;;;;;;;;;;;;5044152;28;19921;-86
2023/12/30 16:36:36;;;;;;;;;;;;;;;;;;5053233;28;19920;-86
2023/12/30 16:39:02;;;;;;;;;;;;;;;;;;5054163;28;19920;-85
2023/12/30 16:41:28;;;;;;;;;;;;;;;;;;5070697;28;20390;-85
2023/12/30 16:43:54;;;;;;;;;;;;;;;;;;5051536;28;19917;-86